Time;durP1;ratioP1;P1;durP2;ratioP2;P2;SDS_P1;SDS_P2;PMS_P1;PMS_P2;Temp;Humidity;BMP_temperature;BMP_pressure;BME280_temperature;BME280_humidity;BME280_pressure;Samples;Min_cycle;Max_cycle;Signal;HPM_P1;HPM_P2
2023/09/09 00:01:52;;;;;;;11.90;9.48;;;20.80;56.10;;;;;;4986049;28;114403;-79
2023/09/09 00:04:20;;;;;;;14.07;11.05;;;20.80;56.20;;;;;;4985224;28;114370;-79
2023/09/09 00:06:47;;;;;;;13.13;10.93;;;20.80;56.10;;;;;;4983876;28;114836;-77
2023/09/09 00:09:15;;;;;;;12.80;10.55;;;20.80;56.10;;;;;;4983833;28;115329;-78
2023/09/09 00:11:42;;;;;;;12.13;10.85;;;20.80;56.10;;;;;;4983983;28;114725;-77
2023/09/09 00:14:09;;;;;;;12.73;10.85;;;20.80;56.10;;;;;;4986010;28;114093;-77
2023/09/09 00:16:36;;;;;;;11.20;10.00;;;20.80;56.10;;;;;;4984864;28;115303;-78
2023/09/09 00:19:03;;;;;;;13.90;11.07;;;20.80;56.20;;;;;;4984923;28;114648;-78
2023/09/09 00:21:30;;;;;;;11.50;10.23;;;20.80;56.10;;;;;;4952123;28;114293;-78
2023/09/09 00:23:58;;;;;;;13.25;11.05;;;20.80;56.10;;;;;;4985731;28;114243;-78
2023/09/09 00:26:27;;;;;;;13.25;10.88;;;20.80;56.00;;;;;;4983720;28;115001;-78
2023/09/09 00:28:55;;;;;;;11.63;10.05;;;20.80;56.10;;;;;;4985336;28;115016;-78
2023/09/09 00:31:22;;;;;;;14.95;10.98;;;20.80;56.10;;;;;;4984414;28;114347;-78
2023/09/09 00:33:49;;;;;;;12.40;10.75;;;20.80;56.00;;;;;;4985620;28;114116;-78
2023/09/09 00:36:16;;;;;;;12.02;9.73;;;20.80;55.80;;;;;;4983588;28;115048;-78
2023/09/09 00:38:43;;;;;;;13.45;11.23;;;20.80;55.90;;;;;;4999989;28;114775;-78
2023/09/09 00:41:15;;;;;;;14.55;11.65;;;20.70;55.80;;;;;;4984358;28;114273;-78
2023/09/09 00:43:44;;;;;;;12.18;10.88;;;20.80;55.90;;;;;;4984256;28;114018;-78
2023/09/09 00:46:11;;;;;;;12.48;10.25;;;20.80;55.90;;;;;;4984366;28;114950;-79
2023/09/09 00:48:39;;;;;;;13.60;10.07;;;20.80;56.00;;;;;;4983121;28;115744;-78
2023/09/09 00:51:11;;;;;;;12.85;11.45;;;20.70;56.00;;;;;;4967449;28;114225;-78
2023/09/09 00:53:39;;;;;;;14.63;11.18;;;20.70;56.00;;;;;;4985856;28;114361;-78
2023/09/09 00:56:06;;;;;;;13.73;10.98;;;20.70;56.00;;;;;;4983027;28;114951;-77
2023/09/09 00:58:33;;;;;;;12.85;10.73;;;20.70;56.10;;;;;;4966620;28;114718;-78
2023/09/09 01:01:01;;;;;;;11.95;10.73;;;20.70;56.00;;;;;;4966816;28;114341;-77
2023/09/09 01:03:29;;;;;;;11.93;10.73;;;20.70;56.00;;;;;;4985132;28;114236;-77
2023/09/09 01:05:56;;;;;;;11.85;10.15;;;20.70;56.00;;;;;;4983158;28;114991;-78
2023/09/09 01:08:27;;;;;;;12.57;10.68;;;20.70;56.10;;;;;;4966509;28;114554;-78
2023/09/09 01:10:55;;;;;;;13.95;11.25;;;20.80;55.90;;;;;;4983733;28;114249;-80
2023/09/09 01:13:22;;;;;;;12.35;10.88;;;20.80;56.00;;;;;;4983529;28;114382;-78
2023/09/09 01:15:49;;;;;;;14.85;12.15;;;20.80;55.90;;;;;;4982481;28;114765;-79
2023/09/09 01:18:17;;;;;;;11.68;9.63;;;20.80;55.90;;;;;;4966803;28;114717;-78
2023/09/09 01:20:49;;;;;;;12.48;10.45;;;20.70;56.00;;;;;;4983583;28;114213;-78
2023/09/09 01:23:17;;;;;;;15.18;12.10;;;20.70;56.10;;;;;;4984852;28;114441;-78
2023/09/09 01:25:43;;;;;;;13.38;11.38;;;20.70;55.80;;;;;;4949770;28;115377;-78
2023/09/09 01:28:10;;;;;;;11.38;10.13;;;20.70;55.90;;;;;;4982791;28;114900;-78
2023/09/09 01:30:37;;;;;;;12.90;10.75;;;20.70;56.00;;;;;;4984714;28;114383;-78
2023/09/09 01:33:05;;;;;;;13.05;10.50;;;20.70;56.00;;;;;;4984671;28;114568;-78
2023/09/09 01:35:32;;;;;;;12.68;10.90;;;20.70;56.00;;;;;;4982641;28;116681;-78
2023/09/09 01:37:59;;;;;;;13.63;10.30;;;20.70;56.00;;;;;;4966245;28;114568;-79
2023/09/09 01:40:26;;;;;;;17.05;12.25;;;20.70;56.00;;;;;;4983463;28;114366;-78
2023/09/09 01:42:53;;;;;;;12.07;9.88;;;20.70;55.80;;;;;;4983655;28;114451;-78
2023/09/09 01:45:20;;;;;;;11.55;10.23;;;20.70;56.00;;;;;;4982551;28;114846;-78
2023/09/09 01:47:47;;;;;;;14.30;12.02;;;20.70;55.90;;;;;;4983731;28;114600;-77
2023/09/09 01:50:14;;;;;;;13.95;10.88;;;20.80;55.70;;;;;;4982562;28;114203;-78
2023/09/09 01:52:42;;;;;;;11.32;9.63;;;20.70;55.80;;;;;;4984443;28;114137;-78
2023/09/09 01:55:09;;;;;;;12.43;10.48;;;20.70;55.80;;;;;;4983375;28;115619;-79
2023/09/09 01:57:38;;;;;;;14.48;11.15;;;20.70;55.80;;;;;;4999351;28;114561;-79
2023/09/09 02:00:09;;;;;;;11.70;9.82;;;20.70;55.60;;;;;;4966651;28;114358;-80
2023/09/09 02:02:39;;;;;;;12.73;10.63;;;20.70;55.80;;;;;;4984308;28;114270;-78
2023/09/09 02:05:07;;;;;;;10.80;9.50;;;20.70;55.80;;;;;;4983442;28;114978;-78
2023/09/09 02:07:34;;;;;;;13.77;11.75;;;20.70;55.90;;;;;;4983626;28;114630;-78
2023/09/09 02:10:01;;;;;;;11.77;10.43;;;20.70;55.70;;;;;;4982432;28;114390;-77
2023/09/09 02:12:29;;;;;;;13.25;11.45;;;20.70;55.90;;;;;;4983088;28;114803;-79
2023/09/09 02:14:56;;;;;;;12.82;10.60;;;20.70;55.50;;;;;;4964675;28;118448;-79
2023/09/09 02:17:23;;;;;;;13.85;12.07;;;20.60;55.70;;;;;;4981960;28;115233;-78
2023/09/09 02:19:55;;;;;;;12.30;11.00;;;20.60;55.50;;;;;;4982633;28;114156;-79
2023/09/09 02:22:23;;;;;;;12.45;10.43;;;20.50;55.70;;;;;;4983678;28;114250;-79
2023/09/09 02:24:55;;;;;;;14.93;9.95;;;20.50;56.00;;;;;;4983317;28;114978;-78
2023/09/09 02:27:23;;;;;;;12.70;10.57;;;20.50;56.00;;;;;;5015044;28;114669;-79
2023/09/09 02:29:50;;;;;;;12.13;9.85;;;20.50;55.80;;;;;;4965960;28;114329;-78
2023/09/09 02:32:18;;;;;;;13.75;10.93;;;20.40;56.10;;;;;;4984212;28;114091;-78
2023/09/09 02:34:45;;;;;;;11.95;10.60;;;20.40;55.60;;;;;;4981865;28;114823;-77
2023/09/09 02:37:17;;;;;;;14.27;10.52;;;20.40;55.90;;;;;;4965346;28;114626;-79
2023/09/09 02:39:45;;;;;;;13.73;11.43;;;20.40;55.50;;;;;;4965967;28;114320;-78
2023/09/09 02:42:14;;;;;;;11.38;9.90;;;20.30;55.10;;;;;;4965836;28;114397;-78
2023/09/09 02:44:42;;;;;;;12.75;10.43;;;20.30;55.80;;;;;;4981735;28;114842;-78
2023/09/09 02:47:09;;;;;;;11.80;10.20;;;20.30;55.80;;;;;;4981529;28;114988;-78
2023/09/09 02:49:37;;;;;;;11.52;10.25;;;20.40;55.70;;;;;;4982086;28;114354;-78
2023/09/09 02:52:04;;;;;;;12.25;9.85;;;20.30;56.00;;;;;;4982149;28;114155;-79
2023/09/09 02:54:31;;;;;;;11.40;10.23;;;20.40;56.10;;;;;;4981394;28;114933;-78
2023/09/09 02:56:59;;;;;;;11.82;10.60;;;20.40;55.80;;;;;;4981612;28;114496;-79
2023/09/09 02:59:26;;;;;;;11.63;10.38;;;20.40;55.40;;;;;;4984446;28;114395;-79
2023/09/09 03:01:53;;;;;;;12.05;10.82;;;20.40;55.50;;;;;;4972395;28;115021;-79
2023/09/09 03:04:20;;;;;;;12.30;10.00;;;20.30;55.40;;;;;;4988837;28;114860;-78
2023/09/09 03:06:47;;;;;;;11.10;9.63;;;20.30;55.50;;;;;;4987926;28;114858;-78
2023/09/09 03:09:15;;;;;;;12.23;10.90;;;20.30;55.90;;;;;;4988491;28;114321;-79
2023/09/09 03:11:42;;;;;;;11.75;10.55;;;20.30;55.50;;;;;;4988524;28;114293;-78
2023/09/09 03:14:09;;;;;;;13.05;10.90;;;20.20;55.60;;;;;;4971575;28;114948;-78
2023/09/09 03:16:37;;;;;;;12.02;10.57;;;20.20;56.00;;;;;;4987176;28;115296;-79
2023/09/09 03:19:04;;;;;;;12.45;11.15;;;20.20;56.20;;;;;;4989711;28;114160;-78
2023/09/09 03:21:31;;;;;;;12.93;10.70;;;20.20;56.10;;;;;;4988711;28;114733;-77
2023/09/09 03:23:58;;;;;;;13.02;9.50;;;20.20;56.10;;;;;;4988597;28;116275;-78
2023/09/09 03:26:25;;;;;;;13.00;10.60;;;20.20;56.30;;;;;;4989033;28;114943;-78
2023/09/09 03:28:52;;;;;;;11.75;10.15;;;20.20;55.90;;;;;;5004643;28;114357;-78
2023/09/09 03:31:19;;;;;;;12.77;10.73;;;20.20;56.10;;;;;;4989719;28;114450;-79
2023/09/09 03:33:49;;;;;;;10.60;9.50;;;20.20;56.10;;;;;;4987740;28;114975;-78
2023/09/09 03:36:16;;;;;;;13.05;10.57;;;20.20;56.30;;;;;;4988871;28;114638;-78
2023/09/09 03:38:44;;;;;;;12.57;10.30;;;20.20;56.00;;;;;;4988206;28;114460;-79
2023/09/09 03:41:11;;;;;;;12.32;9.77;;;20.20;56.00;;;;;;4988330;28;114514;-79
2023/09/09 03:43:40;;;;;;;11.73;9.75;;;20.20;56.10;;;;;;4987569;28;114989;-79
2023/09/09 03:46:08;;;;;;;11.48;9.85;;;20.20;56.00;;;;;;4987979;28;114629;-79
2023/09/09 03:48:35;;;;;;;11.52;10.05;;;20.20;56.20;;;;;;4987933;28;114423;-79
2023/09/09 03:51:02;;;;;;;11.38;9.35;;;20.20;56.00;;;;;;4987946;28;114457;-78
2023/09/09 03:53:31;;;;;;;15.48;10.98;;;20.20;56.20;;;;;;4987035;28;115005;-78
2023/09/09 03:56:01;;;;;;;12.82;10.13;;;20.20;56.10;;;;;;4954543;28;117577;-77
2023/09/09 03:58:28;;;;;;;11.10;9.68;;;20.30;55.90;;;;;;4988236;28;114349;-79
2023/09/09 04:01:04;;;;;;;13.63;11.50;;;20.20;56.10;;;;;;4989351;28;114363;-78
2023/09/09 04:03:35;;;;;;;11.80;9.57;;;20.30;55.60;;;;;;4971316;28;114873;-78
2023/09/09 04:06:08;;;;;;;10.55;9.45;;;20.20;56.00;;;;;;4954566;28;117643;-78
2023/09/09 04:08:36;;;;;;;12.43;10.30;;;20.20;55.80;;;;;;4971634;28;114223;-78
2023/09/09 04:11:04;;;;;;;11.68;10.25;;;20.20;55.80;;;;;;4986453;28;114209;-79
2023/09/09 04:13:32;;;;;;;10.95;9.82;;;20.20;55.90;;;;;;4983660;28;116101;-78
2023/09/09 04:15:59;;;;;;;11.15;9.73;;;20.20;55.80;;;;;;4983492;28;114555;-78
2023/09/09 04:18:28;;;;;;;11.68;10.40;;;20.20;55.90;;;;;;4983914;28;114598;-78
2023/09/09 04:21:11;;;;;;;12.18;10.02;;;20.20;55.80;;;;;;4970198;28;114111;-78
2023/09/09 04:23:38;;;;;;;13.68;10.38;;;20.20;55.90;;;;;;4983786;28;114929;-78
2023/09/09 04:26:07;;;;;;;10.77;9.60;;;20.20;56.00;;;;;;4983509;28;115802;-77
2023/09/09 04:28:34;;;;;;;11.93;9.73;;;20.20;55.90;;;;;;5017796;28;114473;-78
2023/09/09 04:31:02;;;;;;;10.98;9.38;;;20.20;55.60;;;;;;4984357;28;114325;-78
2023/09/09 04:33:30;;;;;;;10.85;9.73;;;20.20;55.80;;;;;;4967279;28;114890;-78
2023/09/09 04:35:58;;;;;;;12.60;10.50;;;20.30;55.70;;;;;;4984974;28;115835;-77
2023/09/09 04:38:25;;;;;;;13.70;12.15;;;20.30;55.60;;;;;;4985430;28;114241;-77
2023/09/09 04:40:53;;;;;;;12.55;10.55;;;20.30;55.40;;;;;;4984567;28;114450;-77
2023/09/09 04:43:20;;;;;;;13.77;11.43;;;20.30;55.30;;;;;;4984056;28;115542;-78
2023/09/09 04:45:48;;;;;;;10.18;9.18;;;20.30;55.20;;;;;;4967046;28;114652;-78
2023/09/09 04:48:15;;;;;;;12.13;10.80;;;20.40;55.30;;;;;;4984336;28;114220;-78
2023/09/09 04:50:42;;;;;;;10.93;9.60;;;20.50;55.10;;;;;;4984230;28;114463;-78
2023/09/09 04:53:09;;;;;;;11.32;9.52;;;20.50;55.30;;;;;;4983495;28;114915;-79
2023/09/09 04:55:37;;;;;;;14.20;11.65;;;20.60;55.10;;;;;;4983444;28;114694;-78
2023/09/09 04:58:07;;;;;;;11.70;9.15;;;20.70;54.60;;;;;;4984166;28;114159;-78
2023/09/09 05:00:34;;;;;;;13.05;10.95;;;20.70;54.60;;;;;;5000906;28;114503;-77
2023/09/09 05:03:01;;;;;;;12.18;9.95;;;20.70;54.50;;;;;;4983028;28;114931;-78
2023/09/09 05:05:28;;;;;;;11.18;9.27;;;20.80;54.50;;;;;;4982962;28;114575;-80
2023/09/09 05:07:55;;;;;;;10.80;9.70;;;20.90;54.40;;;;;;4983483;28;114479;-78
2023/09/09 05:10:24;;;;;;;16.20;12.07;;;20.90;54.30;;;;;;4983812;28;114298;-78
2023/09/09 05:12:51;;;;;;;12.60;9.68;;;21.00;53.90;;;;;;4983249;28;115144;-79
2023/09/09 05:15:18;;;;;;;11.48;9.32;;;21.10;54.00;;;;;;4982700;28;117497;-77
2023/09/09 05:17:45;;;;;;;12.98;10.75;;;21.20;53.90;;;;;;4983575;28;114406;-77
2023/09/09 05:20:13;;;;;;;11.38;9.73;;;21.30;53.70;;;;;;4985113;28;114346;-78
2023/09/09 05:22:40;;;;;;;12.82;10.80;;;21.30;53.60;;;;;;4982746;28;115136;-78
2023/09/09 05:25:07;;;;;;;11.70;10.48;;;21.30;53.40;;;;;;4983281;28;114588;-78
2023/09/09 05:27:34;;;;;;;11.20;10.00;;;21.40;53.40;;;;;;4984897;28;114031;-79
2023/09/09 05:30:02;;;;;;;14.07;11.25;;;21.50;53.20;;;;;;4984429;28;114960;-78
2023/09/09 05:32:38;;;;;;;12.43;10.10;;;21.60;53.20;;;;;;4982371;28;114727;-78
2023/09/09 05:35:10;;;;;;;12.95;10.18;;;21.70;52.90;;;;;;4982749;28;114552;-79
2023/09/09 05:37:37;;;;;;;13.70;10.50;;;21.70;52.80;;;;;;4983526;28;114391;-78
2023/09/09 05:40:05;;;;;;;13.98;10.88;;;21.80;52.70;;;;;;4983403;28;114344;-78
2023/09/09 05:42:32;;;;;;;12.43;11.13;;;21.80;52.40;;;;;;4982391;28;114968;-78
2023/09/09 05:44:59;;;;;;;15.13;11.68;;;21.80;52.10;;;;;;4982519;28;114583;-79
2023/09/09 05:47:29;;;;;;;11.27;9.82;;;21.90;52.00;;;;;;4983338;28;114426;-78
2023/09/09 05:49:56;;;;;;;12.63;11.10;;;21.80;51.70;;;;;;4984858;28;115681;-78
2023/09/09 05:52:25;;;;;;;13.93;9.90;;;21.90;51.60;;;;;;4982407;28;115057;-78
2023/09/09 05:54:52;;;;;;;12.00;10.15;;;21.90;51.60;;;;;;4983538;28;115191;-80
2023/09/09 05:57:19;;;;;;;11.55;10.32;;;22.10;51.60;;;;;;4966201;28;114326;-78
2023/09/09 05:59:49;;;;;;;14.55;12.20;;;22.10;51.50;;;;;;4967260;28;114538;-78
2023/09/09 06:02:19;;;;;;;13.85;10.88;;;22.20;51.60;;;;;;4966120;28;115092;-79
2023/09/09 06:04:46;;;;;;;11.98;9.57;;;22.30;51.40;;;;;;4983289;28;116254;-78
2023/09/09 06:07:13;;;;;;;9.68;8.20;;;22.40;51.30;;;;;;4982945;28;114519;-78
2023/09/09 06:09:42;;;;;;;14.93;10.40;;;22.50;51.10;;;;;;4982625;28;114427;-79
2023/09/09 06:12:09;;;;;;;12.23;9.63;;;22.60;51.20;;;;;;4983278;28;115066;-79
2023/09/09 06:14:36;;;;;;;12.68;10.07;;;22.70;51.00;;;;;;4982057;28;114780;-79
2023/09/09 06:17:03;;;;;;;11.32;10.13;;;22.80;50.90;;;;;;4982815;28;114132;-79
2023/09/09 06:19:31;;;;;;;11.80;10.60;;;22.80;50.80;;;;;;4982854;28;114505;-79
2023/09/09 06:21:58;;;;;;;14.57;9.82;;;22.90;50.70;;;;;;4981499;28;115035;-80
2023/09/09 06:24:29;;;;;;;11.18;9.88;;;23.00;50.80;;;;;;4983128;28;114754;-78
2023/09/09 06:26:56;;;;;;;12.73;9.65;;;23.10;50.60;;;;;;4999412;28;114117;-78
2023/09/09 06:29:25;;;;;;;10.18;8.65;;;23.20;50.50;;;;;;4982579;28;114439;-78
2023/09/09 06:31:53;;;;;;;9.85;8.52;;;23.30;50.60;;;;;;4981995;28;114848;-77
2023/09/09 06:34:24;;;;;;;11.57;9.00;;;23.40;50.60;;;;;;4981043;28;114742;-78
2023/09/09 06:36:52;;;;;;;9.75;8.35;;;23.50;50.30;;;;;;4982046;28;114372;-79
2023/09/09 06:39:19;;;;;;;10.18;8.55;;;23.60;50.30;;;;;;4989111;28;114047;-78
2023/09/09 06:41:46;;;;;;;9.77;8.43;;;23.70;50.30;;;;;;4982384;28;115117;-79
2023/09/09 06:44:16;;;;;;;8.90;8.00;;;23.70;50.20;;;;;;4983568;28;114578;-78
2023/09/09 06:46:43;;;;;;;9.43;8.45;;;23.80;49.80;;;;;;4982722;28;114549;-78
2023/09/09 06:49:10;;;;;;;10.82;8.60;;;23.80;50.00;;;;;;4984094;28;114200;-77
2023/09/09 06:51:39;;;;;;;9.48;8.48;;;23.80;50.10;;;;;;4983163;28;114886;-79
2023/09/09 06:54:07;;;;;;;11.32;8.88;;;23.90;49.80;;;;;;4982930;28;115353;-78
2023/09/09 06:56:34;;;;;;;9.65;8.30;;;23.90;49.80;;;;;;4983860;28;114096;-78
2023/09/09 06:59:01;;;;;;;10.13;8.38;;;23.90;49.70;;;;;;4982414;28;114350;-78
2023/09/09 07:01:28;;;;;;;11.07;9.02;;;23.90;49.50;;;;;;4983101;28;114980;-78
2023/09/09 07:03:55;;;;;;;11.02;8.75;;;23.90;49.70;;;;;;4983300;28;114663;-78
2023/09/09 07:06:25;;;;;;;10.82;8.48;;;23.90;49.60;;;;;;4983585;28;114136;-79
2023/09/09 07:08:52;;;;;;;10.98;7.88;;;23.90;49.50;;;;;;4983624;28;114330;-78
2023/09/09 07:11:22;;;;;;;9.52;8.38;;;24.00;49.60;;;;;;4980985;28;115064;-78
2023/09/09 07:13:49;;;;;;;9.80;8.23;;;24.00;49.50;;;;;;4982442;28;116004;-79
2023/09/09 07:16:16;;;;;;;11.23;8.10;;;24.00;49.80;;;;;;4965558;28;114517;-79
2023/09/09 07:18:45;;;;;;;10.77;8.65;;;24.00;50.00;;;;;;4982282;28;114699;-79
2023/09/09 07:21:13;;;;;;;10.90;8.30;;;24.10;49.70;;;;;;5014743;28;117215;-79
2023/09/09 07:23:41;;;;;;;15.35;8.65;;;24.10;49.90;;;;;;4982337;28;116013;-78
2023/09/09 07:26:10;;;;;;;9.20;8.23;;;24.20;49.60;;;;;;4983814;28;114099;-78
2023/09/09 07:28:37;;;;;;;11.10;8.98;;;24.20;49.60;;;;;;4983783;28;114293;-78
2023/09/09 07:31:04;;;;;;;11.00;8.88;;;24.30;49.20;;;;;;4982330;28;114995;-78
2023/09/09 07:33:31;;;;;;;9.68;8.63;;;24.30;49.30;;;;;;4982288;28;114636;-78
2023/09/09 07:35:58;;;;;;;12.60;9.45;;;24.30;49.50;;;;;;4982610;28;114622;-80
2023/09/09 07:38:25;;;;;;;13.93;9.60;;;24.30;49.20;;;;;;4982976;28;114116;-79
2023/09/09 07:40:59;;;;;;;12.48;9.32;;;24.30;49.20;;;;;;4982261;28;114639;-78
2023/09/09 07:43:26;;;;;;;12.85;9.27;;;24.40;49.10;;;;;;4982093;28;114603;-78
2023/09/09 07:45:54;;;;;;;12.88;8.60;;;24.50;48.80;;;;;;4983798;28;114140;-77
2023/09/09 07:48:21;;;;;;;11.32;8.77;;;24.60;48.90;;;;;;4986115;28;114082;-78
2023/09/09 07:50:54;;;;;;;12.38;9.07;;;24.60;49.10;;;;;;4985609;28;114846;-78
2023/09/09 07:53:22;;;;;;;;;;;24.70;49.10;;;;;;4986295;28;114392;-78
2023/09/09 07:55:49;;;;;;;12.18;9.30;;;24.70;49.50;;;;;;4986208;28;114302;-78
2023/09/09 07:58:17;;;;;;;10.82;8.90;;;24.80;48.90;;;;;;4986161;28;114042;-78
2023/09/09 08:00:46;;;;;;;13.88;9.10;;;24.90;48.70;;;;;;4983787;28;115178;-78
2023/09/09 08:03:14;;;;;;;11.52;8.80;;;25.00;48.30;;;;;;4983690;28;116715;-79
2023/09/09 08:05:41;;;;;;;12.30;9.18;;;25.00;48.00;;;;;;4985888;28;114135;-78
2023/09/09 08:08:10;;;;;;;11.98;8.90;;;25.10;47.90;;;;;;4984290;28;114369;-79
2023/09/09 08:10:37;;;;;;;10.50;8.77;;;25.10;47.60;;;;;;4984867;28;114293;-78
2023/09/09 08:13:05;;;;;;;10.75;9.25;;;25.20;47.50;;;;;;4985122;28;114695;-80
2023/09/09 08:15:32;;;;;;;11.18;8.80;;;25.30;47.00;;;;;;4984312;28;114339;-78
2023/09/09 08:18:02;;;;;;;9.70;7.82;;;25.30;46.80;;;;;;4986089;28;114485;-79
2023/09/09 08:20:30;;;;;;;10.70;9.48;;;25.40;46.90;;;;;;4985174;28;115102;-78
2023/09/09 08:22:57;;;;;;;10.80;9.10;;;25.60;46.40;;;;;;4985035;28;114877;-79
2023/09/09 08:25:26;;;;;;;9.68;8.68;;;25.70;46.30;;;;;;4967602;28;114229;-80
2023/09/09 08:27:53;;;;;;;10.27;8.75;;;25.80;45.70;;;;;;4984815;28;114163;-79
2023/09/09 08:30:20;;;;;;;13.45;9.15;;;25.80;45.40;;;;;;4983719;28;114846;-79
2023/09/09 08:32:47;;;;;;;10.10;8.98;;;25.80;45.10;;;;;;4984532;28;114898;-79
2023/09/09 08:35:15;;;;;;;12.27;9.27;;;25.80;45.10;;;;;;4985688;28;114496;-79
2023/09/09 08:37:42;;;;;;;12.48;9.50;;;25.80;45.10;;;;;;4985737;28;114135;-78
2023/09/09 08:40:09;;;;;;;11.80;9.00;;;25.70;45.30;;;;;;4985236;28;115543;-78
2023/09/09 08:42:56;;;;;;;11.13;8.60;;;25.80;45.00;;;;;;4985469;28;115729;-78
2023/09/09 08:45:23;;;;;;;10.10;8.52;;;25.80;45.00;;;;;;4985725;28;114604;-78
2023/09/09 08:47:51;;;;;;;14.82;9.75;;;25.80;44.60;;;;;;4985391;28;114132;-78
2023/09/09 08:50:18;;;;;;;12.57;8.82;;;25.80;44.30;;;;;;4983063;28;115212;-78
2023/09/09 08:52:45;;;;;;;10.80;8.45;;;25.80;44.30;;;;;;4984625;28;114797;-79
2023/09/09 08:55:12;;;;;;;9.70;8.70;;;25.90;44.10;;;;;;5000836;28;114458;-78
2023/09/09 08:57:39;;;;;;;11.82;9.02;;;26.00;44.00;;;;;;4984669;28;114336;-79
2023/09/09 09:00:06;;;;;;;15.55;9.25;;;26.00;43.80;;;;;;4983227;28;115318;-78
2023/09/09 09:02:34;;;;;;;11.20;8.88;;;26.10;43.80;;;;;;4982955;28;115799;-80
2023/09/09 09:05:02;;;;;;;10.25;8.23;;;26.20;43.80;;;;;;4983883;28;114473;-79
2023/09/09 09:07:32;;;;;;;11.88;8.68;;;26.30;42.50;;;;;;4985593;28;114278;-79
2023/09/09 09:09:59;;;;;;;10.20;9.10;;;26.20;43.20;;;;;;4982986;28;114948;-79
2023/09/09 09:12:28;;;;;;;11.00;8.80;;;26.30;43.30;;;;;;4984209;28;114601;-78
2023/09/09 09:14:55;;;;;;;10.43;8.55;;;26.40;43.20;;;;;;4982511;28;114353;-78
2023/09/09 09:17:23;;;;;;;12.25;9.18;;;26.40;43.20;;;;;;4984565;28;114329;-78
2023/09/09 09:19:51;;;;;;;12.00;8.55;;;26.50;43.00;;;;;;5016054;28;115593;-79
2023/09/09 09:22:21;;;;;;;13.18;8.93;;;26.60;42.30;;;;;;4982624;28;115093;-79
2023/09/09 09:24:48;;;;;;;10.88;8.68;;;26.60;42.70;;;;;;4983684;28;114314;-79
2023/09/09 09:27:16;;;;;;;10.18;8.13;;;26.60;42.40;;;;;;4967415;28;114310;-79
2023/09/09 09:29:47;;;;;;;10.75;8.93;;;26.70;42.00;;;;;;4983123;28;114935;-79
2023/09/09 09:32:16;;;;;;;10.88;9.07;;;26.80;42.40;;;;;;4983075;28;114914;-80
2023/09/09 09:34:43;;;;;;;12.45;9.30;;;26.80;43.10;;;;;;4984763;28;114191;-80
2023/09/09 09:37:15;;;;;;;10.43;9.25;;;26.80;43.10;;;;;;4984710;28;114175;-79
2023/09/09 09:39:44;;;;;;;10.48;9.13;;;26.80;43.50;;;;;;4983378;28;115779;-80
2023/09/09 09:42:12;;;;;;;10.95;8.88;;;26.80;43.50;;;;;;4983690;28;114672;-79
2023/09/09 09:44:39;;;;;;;14.43;9.35;;;26.90;44.10;;;;;;4966831;28;114372;-79
2023/09/09 09:47:08;;;;;;;10.98;8.82;;;26.90;43.90;;;;;;4984512;28;114082;-79
2023/09/09 09:49:42;;;;;;;10.40;8.38;;;27.00;43.60;;;;;;4966144;28;116528;-79
2023/09/09 09:52:09;;;;;;;11.30;9.05;;;27.10;43.40;;;;;;4982171;28;115886;-78
2023/09/09 09:54:36;;;;;;;14.05;9.20;;;27.00;44.00;;;;;;4984548;28;114427;-79
2023/09/09 09:57:05;;;;;;;11.15;8.70;;;27.10;43.60;;;;;;4986534;28;114134;-79
2023/09/09 09:59:33;;;;;;;11.43;9.57;;;27.10;43.70;;;;;;4983603;28;115406;-78
2023/09/09 10:02:00;;;;;;;12.15;8.77;;;27.30;42.50;;;;;;4984135;28;114614;-79
2023/09/09 10:04:28;;;;;;;12.55;8.82;;;27.20;41.80;;;;;;4984083;28;114418;-78
2023/09/09 10:06:58;;;;;;;12.57;8.68;;;27.30;42.00;;;;;;4983791;28;114532;-78
2023/09/09 10:09:31;;;;;;;11.05;9.45;;;27.20;42.60;;;;;;4982736;28;114982;-78
2023/09/09 10:12:21;;;;;;;12.27;9.52;;;27.10;42.90;;;;;;4967324;28;114616;-79
2023/09/09 10:15:09;;;;;;;9.55;8.50;;;27.10;43.30;;;;;;4982683;28;114439;-77
2023/09/09 10:17:36;;;;;;;9.77;8.77;;;26.90;42.80;;;;;;4982885;28;114467;-79
2023/09/09 10:20:05;;;;;;;9.75;8.00;;;26.80;43.30;;;;;;4982444;28;115002;-78
2023/09/09 10:22:35;;;;;;;12.55;8.88;;;26.80;43.50;;;;;;4982893;28;115240;-77
2023/09/09 10:25:03;;;;;;;10.27;8.05;;;26.80;43.60;;;;;;4983260;28;114175;-77
2023/09/09 10:27:30;;;;;;;9.68;8.35;;;26.80;43.90;;;;;;4984452;28;114459;-78
2023/09/09 10:29:57;;;;;;;9.55;8.50;;;26.80;44.10;;;;;;4965512;28;116221;-79
2023/09/09 10:32:26;;;;;;;9.85;8.68;;;26.90;43.50;;;;;;4983530;28;114683;-79
2023/09/09 10:34:53;;;;;;;9.45;8.10;;;27.00;42.90;;;;;;4982875;28;114659;-79
2023/09/09 10:37:20;;;;;;;9.73;7.68;;;27.10;42.50;;;;;;4982644;28;114310;-78
2023/09/09 10:39:47;;;;;;;9.68;7.95;;;27.00;41.30;;;;;;4982541;28;114856;-78
2023/09/09 10:42:15;;;;;;;16.48;8.38;;;27.00;41.60;;;;;;4982352;28;114691;-78
2023/09/09 10:44:49;;;;;;;10.80;8.18;;;26.90;41.70;;;;;;4983163;28;114176;-79
2023/09/09 10:47:16;;;;;;;9.38;7.95;;;27.00;42.10;;;;;;4984746;28;114267;-78
2023/09/09 10:49:43;;;;;;;10.05;7.45;;;27.00;42.10;;;;;;4983274;28;115575;-79
2023/09/09 10:52:30;;;;;;;9.45;7.75;;;27.00;41.60;;;;;;4983080;28;116863;-78
2023/09/09 10:55:13;;;;;;;10.27;8.32;;;27.10;41.80;;;;;;4983326;28;114400;-78
2023/09/09 10:57:40;;;;;;;10.00;8.05;;;27.10;41.70;;;;;;4982467;28;114470;-78
2023/09/09 11:00:10;;;;;;;8.55;7.60;;;27.10;41.80;;;;;;4982824;28;114984;-77
2023/09/09 11:02:47;;;;;;;9.80;7.80;;;27.10;41.90;;;;;;4981694;28;114710;-78
2023/09/09 11:05:15;;;;;;;9.38;6.85;;;27.20;41.60;;;;;;4983854;28;114218;-78
2023/09/09 11:07:43;;;;;;;9.40;7.15;;;27.30;40.90;;;;;;4982415;28;114196;-79
2023/09/09 11:10:15;;;;;;;10.48;7.75;;;27.20;40.80;;;;;;4964771;28;119384;-79
2023/09/09 11:12:56;;;;;;;10.35;8.30;;;27.20;40.80;;;;;;4981904;28;115235;-78
2023/09/09 11:15:26;;;;;;;11.43;7.93;;;27.10;41.50;;;;;;5015247;28;114303;-78
2023/09/09 11:17:53;;;;;;;9.00;7.25;;;27.10;41.40;;;;;;4983779;28;114737;-78
2023/09/09 11:20:21;;;;;;;8.00;7.18;;;27.10;41.10;;;;;;4982251;28;116288;-78
2023/09/09 11:22:48;;;;;;;8.48;7.40;;;27.10;40.90;;;;;;4985054;28;114714;-78
2023/09/09 11:25:16;;;;;;;8.43;7.63;;;27.10;40.80;;;;;;4986797;28;114416;-79
2023/09/09 11:27:43;;;;;;;10.55;7.13;;;27.10;40.70;;;;;;4985554;28;114301;-79
2023/09/09 11:30:10;;;;;;;8.57;6.95;;;27.10;40.60;;;;;;4984735;28;117151;-79
2023/09/09 11:32:38;;;;;;;8.00;6.90;;;27.10;40.50;;;;;;4985943;28;114769;-79
2023/09/09 11:35:07;;;;;;;8.68;7.15;;;27.10;39.80;;;;;;4986251;28;114588;-79
2023/09/09 11:37:34;;;;;;;10.27;7.40;;;27.10;39.90;;;;;;4985908;28;114357;-77
2023/09/09 11:40:01;;;;;;;9.80;7.45;;;27.10;40.20;;;;;;4985804;28;114954;-77
2023/09/09 11:42:29;;;;;;;8.52;6.90;;;27.10;40.40;;;;;;4985434;28;116238;-79
2023/09/09 11:44:56;;;;;;;9.45;6.97;;;27.20;39.90;;;;;;4984797;28;114397;-79
2023/09/09 11:47:23;;;;;;;7.10;6.22;;;27.20;39.70;;;;;;4985155;28;114399;-79
2023/09/09 11:49:50;;;;;;;7.60;6.50;;;27.30;38.90;;;;;;4985684;28;114881;-78
2023/09/09 11:52:18;;;;;;;9.30;6.72;;;27.30;39.10;;;;;;4985210;28;116235;-78
2023/09/09 11:54:45;;;;;;;9.40;7.32;;;27.30;39.10;;;;;;4985458;28;114249;-79
2023/09/09 11:57:12;;;;;;;7.65;6.80;;;27.30;39.70;;;;;;4986553;28;114379;-78
2023/09/09 11:59:47;;;;;;;9.10;7.28;;;27.20;40.00;;;;;;4985804;28;115063;-79
2023/09/09 12:02:21;;;;;;;9.95;7.68;;;27.20;40.20;;;;;;4984902;28;114612;-78
2023/09/09 12:04:56;;;;;;;10.48;7.60;;;27.10;40.50;;;;;;4985214;28;114373;-78
2023/09/09 12:07:28;;;;;;;9.70;7.45;;;27.10;41.10;;;;;;4986563;28;114179;-78
2023/09/09 12:09:56;;;;;;;9.02;7.13;;;27.00;41.00;;;;;;4984001;28;114871;-78
2023/09/09 12:12:23;;;;;;;9.52;7.45;;;27.10;41.00;;;;;;4984295;28;114639;-76
2023/09/09 12:14:51;;;;;;;9.52;7.30;;;27.10;41.40;;;;;;4984846;28;114459;-78
2023/09/09 12:17:18;;;;;;;8.60;7.40;;;27.00;41.50;;;;;;5001210;28;114320;-78
2023/09/09 12:19:58;;;;;;;7.97;7.13;;;26.90;41.80;;;;;;4985388;28;114992;-79
2023/09/09 12:22:32;;;;;;;8.73;7.38;;;26.80;41.90;;;;;;5016654;27;115746;-79
2023/09/09 12:25:06;;;;;;;10.10;7.60;;;26.60;42.60;;;;;;4984833;28;114371;-78
2023/09/09 12:27:43;;;;;;;8.70;7.03;;;26.50;42.70;;;;;;4986491;28;114512;-78
2023/09/09 12:30:31;;;;;;;8.85;7.22;;;26.40;42.80;;;;;;4984091;28;115201;-78
2023/09/09 12:33:11;;;;;;;7.97;6.68;;;26.50;42.80;;;;;;4982100;28;116045;-79